createdAt,value
2019-04-06T00:00:26.132Z,95.21
2019-04-06T00:01:26.089Z,95.21
2019-04-06T00:02:26.084Z,95.21
2019-04-06T00:03:26.080Z,95.17
2019-04-06T00:04:26.047Z,95.17
2019-04-06T00:05:26.114Z,95.17
2019-04-06T00:06:26.046Z,95.17
2019-04-06T00:07:26.042Z,95.06
2019-04-06T00:08:26.030Z,95.06
2019-04-06T00:09:26.043Z,94.96
2019-04-06T00:10:26.026Z,94.96
2019-04-06T00:11:25.977Z,94.85
2019-04-06T00:12:25.958Z,94.85
2019-04-06T00:13:25.968Z,94.80
2019-04-06T00:14:25.945Z,94.80
2019-04-06T00:15:25.980Z,94.90
2019-04-06T00:16:25.936Z,95.10
2019-04-06T00:17:25.910Z,95.31
2019-04-06T00:18:25.897Z,95.31
2019-04-06T00:19:25.889Z,95.31
2019-04-06T00:20:25.908Z,95.42
2019-04-06T00:21:25.880Z,95.52
2019-04-06T00:22:25.858Z,95.52
2019-04-06T00:23:25.912Z,95.52
2019-04-06T00:24:25.870Z,95.62
2019-04-06T00:25:25.881Z,95.83
2019-04-06T00:26:25.836Z,95.73
2019-04-06T00:27:25.840Z,95.73
2019-04-06T00:28:25.812Z,95.52
2019-04-06T00:29:25.788Z,95.52
2019-04-06T00:30:25.803Z,95.62
2019-04-06T00:31:25.787Z,95.52
2019-04-06T00:32:25.761Z,95.42
2019-04-06T00:33:25.745Z,95.37
2019-04-06T00:34:25.735Z,95.27
2019-04-06T00:35:25.725Z,95.06
2019-04-06T00:36:25.747Z,95.06
2019-04-06T00:37:25.710Z,95.06
2019-04-06T00:38:25.706Z,95.00
2019-04-06T00:39:25.691Z,95.00
2019-04-06T00:40:25.682Z,95.10
2019-04-06T00:41:25.686Z,95.42
2019-04-06T00:42:25.657Z,95.31
2019-04-06T00:43:25.635Z,95.21
2019-04-06T00:44:25.642Z,95.06
2019-04-06T00:45:25.622Z,95.00
2019-04-06T00:46:25.646Z,95.00
2019-04-06T00:47:25.592Z,95.00
2019-04-06T00:48:25.571Z,94.90
2019-04-06T00:49:25.572Z,94.90
2019-04-06T00:50:25.576Z,95.06
2019-04-06T00:51:25.568Z,94.90
2019-04-06T00:52:25.530Z,95.00
2019-04-06T00:53:25.530Z,95.00
2019-04-06T00:54:25.508Z,94.90
2019-04-06T00:55:25.514Z,95.10
2019-04-06T00:56:25.519Z,95.10
2019-04-06T00:57:25.513Z,95.21
2019-04-06T00:58:25.560Z,95.31
2019-04-06T00:59:25.452Z,95.21
2019-04-06T01:00:25.440Z,95.31
2019-04-06T01:01:25.465Z,95.52
2019-04-06T01:02:25.428Z,95.62
2019-04-06T01:03:25.422Z,95.52
2019-04-06T01:04:25.464Z,95.62
2019-04-06T01:05:25.401Z,95.52
2019-04-06T01:06:25.406Z,95.52
2019-04-06T01:07:25.404Z,95.48
2019-04-06T01:08:25.378Z,95.17
2019-04-06T01:09:25.338Z,95.06
2019-04-06T01:10:25.351Z,95.06
2019-04-06T01:11:25.381Z,95.06
2019-04-06T01:12:25.314Z,95.00
2019-04-06T01:13:25.861Z,95.00
2019-04-06T01:14:25.312Z,95.00
2019-04-06T01:15:25.277Z,94.90
2019-04-06T01:16:25.293Z,95.00
2019-04-06T01:17:25.266Z,94.80
2019-04-06T01:18:25.253Z,94.80
2019-04-06T01:19:25.228Z,94.76
2019-04-06T01:20:25.215Z,94.76
2019-04-06T01:21:25.244Z,94.76
2019-04-06T01:22:25.195Z,94.65
2019-04-06T01:23:25.188Z,94.45
2019-04-06T01:24:25.182Z,94.49
2019-04-06T01:25:25.183Z,94.70
2019-04-06T01:26:25.197Z,94.80
2019-04-06T01:27:25.148Z,94.85
2019-04-06T01:28:25.154Z,94.96
2019-04-06T01:29:25.132Z,94.96
2019-04-06T01:30:25.147Z,94.96
2019-04-06T01:31:25.143Z,94.85
2019-04-06T01:32:25.133Z,94.90
2019-04-06T01:33:25.093Z,95.10
2019-04-06T01:34:25.257Z,95.10
2019-04-06T01:35:25.062Z,95.10
2019-04-06T01:36:25.077Z,95.21
2019-04-06T01:37:25.063Z,95.31
2019-04-06T01:38:25.129Z,95.52
2019-04-06T01:39:25.034Z,95.62
2019-04-06T01:40:25.014Z,95.52
2019-04-06T01:41:25.034Z,95.73
2019-04-06T01:42:24.983Z,95.83
2019-04-06T01:43:24.983Z,95.93
2019-04-06T01:44:24.974Z,95.93
2019-04-06T01:45:24.975Z,96.14
2019-04-06T01:46:24.979Z,96.14
2019-04-06T01:47:24.924Z,96.24
2019-04-06T01:48:24.938Z,96.14
2019-04-06T01:49:24.924Z,96.24
2019-04-06T01:50:24.899Z,96.14
2019-04-06T01:51:24.898Z,96.14
2019-04-06T01:52:24.873Z,96.14
2019-04-06T01:53:24.888Z,96.24
2019-04-06T01:54:24.862Z,96.34
2019-04-06T01:55:24.839Z,96.24
2019-04-06T01:56:24.863Z,96.24
2019-04-06T01:57:24.819Z,96.24
2019-04-06T01:58:24.821Z,96.03
2019-04-06T01:59:24.820Z,95.83
2019-04-06T02:00:24.801Z,95.73
2019-04-06T02:01:24.852Z,95.93
2019-04-06T02:02:24.816Z,95.83
2019-04-06T02:03:24.761Z,95.93
2019-04-06T02:04:24.763Z,95.93
2019-04-06T02:05:24.824Z,95.93
2019-04-06T02:06:24.731Z,96.03
2019-04-06T02:07:24.739Z,96.03
2019-04-06T02:08:24.701Z,96.03
2019-04-06T02:09:24.720Z,96.03
2019-04-06T02:10:24.679Z,95.93
2019-04-06T02:11:24.671Z,96.03
2019-04-06T02:12:24.685Z,96.03
2019-04-06T02:13:24.645Z,96.03
2019-04-06T02:14:24.643Z,95.83
2019-04-06T02:15:24.634Z,95.93
2019-04-06T02:16:24.607Z,95.93
2019-04-06T02:17:24.619Z,95.93
2019-04-06T02:18:24.591Z,95.93
2019-04-06T02:19:24.583Z,96.03
2019-04-06T02:20:24.555Z,95.93
2019-04-06T02:21:24.567Z,95.93
2019-04-06T02:22:24.646Z,95.83
2019-04-06T02:23:24.546Z,95.93
2019-04-06T02:24:24.542Z,95.93
2019-04-06T02:25:24.526Z,95.83
2019-04-06T02:26:30.132Z,96.03
2019-04-06T02:27:25.522Z,96.14
2019-04-06T02:28:24.488Z,96.24
2019-04-06T02:29:24.497Z,96.24
2019-04-06T02:30:24.539Z,96.34
2019-04-06T02:31:24.457Z,96.34
2019-04-06T02:32:24.469Z,96.34
2019-04-06T02:33:24.444Z,96.34
2019-04-06T02:34:24.433Z,96.24
2019-04-06T02:35:24.402Z,96.24
2019-04-06T02:36:24.399Z,96.14
2019-04-06T02:37:24.520Z,96.24
2019-04-06T02:38:24.512Z,96.14
2019-04-06T02:39:24.378Z,96.34
2019-04-06T02:40:24.355Z,96.45
2019-04-06T02:41:24.361Z,96.55
2019-04-06T02:42:24.377Z,96.66
2019-04-06T02:43:24.327Z,96.75
2019-04-06T02:44:24.324Z,96.66
2019-04-06T02:45:24.308Z,96.66
2019-04-06T02:46:24.319Z,96.75
2019-04-06T02:47:24.311Z,96.66
2019-04-06T02:48:24.299Z,96.66
2019-04-06T02:49:24.261Z,96.66
2019-04-06T02:50:24.236Z,96.55
2019-04-06T02:51:24.239Z,96.45
2019-04-06T02:52:24.255Z,96.45
2019-04-06T02:53:24.210Z,96.45
2019-04-06T02:54:24.225Z,96.34
2019-04-06T02:55:24.228Z,96.59
2019-04-06T02:56:24.198Z,96.80
2019-04-06T02:57:24.212Z,96.80
2019-04-06T02:58:24.971Z,96.91
2019-04-06T02:59:24.158Z,97.01
2019-04-06T03:00:24.141Z,96.86
2019-04-06T03:01:24.165Z,96.75
2019-04-06T03:02:24.162Z,96.66
2019-04-06T03:03:24.120Z,96.45
2019-04-06T03:04:24.120Z,96.34
2019-04-06T03:05:24.090Z,96.45
2019-04-06T03:06:24.095Z,96.45
2019-04-06T03:07:24.273Z,96.34
2019-04-06T03:08:24.069Z,96.49
2019-04-06T03:09:24.216Z,96.49
2019-04-06T03:10:24.028Z,96.59
2019-04-06T03:11:24.174Z,96.66
2019-04-06T03:12:24.045Z,96.66
2019-04-06T03:13:24.003Z,96.55
2019-04-06T03:14:24.069Z,96.55
2019-04-06T03:15:23.985Z,96.55
2019-04-06T03:16:24.048Z,96.45
2019-04-06T03:17:23.998Z,96.34
2019-04-06T03:18:23.957Z,96.24
2019-04-06T03:19:23.954Z,96.24
2019-04-06T03:20:24.015Z,96.24
2019-04-06T03:21:23.993Z,96.24
2019-04-06T03:22:23.925Z,96.14
2019-04-06T03:23:25.275Z,96.14
2019-04-06T03:24:23.893Z,96.24
2019-04-06T03:25:23.867Z,96.24
2019-04-06T03:26:23.869Z,96.24
2019-04-06T03:27:23.878Z,96.24
2019-04-06T03:28:23.866Z,96.34
2019-04-06T03:29:23.832Z,96.34
2019-04-06T03:30:23.807Z,96.34
2019-04-06T03:31:27.404Z,96.45
2019-04-06T03:32:23.813Z,96.45
2019-04-06T03:33:23.836Z,96.34
2019-04-06T03:34:23.789Z,96.34
2019-04-06T03:35:23.943Z,96.34
2019-04-06T03:36:23.760Z,96.24
2019-04-06T03:37:23.729Z,96.14
2019-04-06T03:38:23.772Z,96.03
2019-04-06T03:39:23.738Z,96.03
2019-04-06T03:40:23.721Z,96.14
2019-04-06T03:41:23.711Z,96.14
2019-04-06T03:42:23.718Z,96.03
2019-04-06T03:43:23.718Z,96.14
2019-04-06T03:44:23.670Z,96.08
2019-04-06T03:45:23.641Z,96.28
2019-04-06T03:46:23.637Z,96.39
2019-04-06T03:47:23.629Z,96.39
2019-04-06T03:48:23.643Z,96.49
2019-04-06T03:49:23.608Z,96.49
2019-04-06T03:50:23.582Z,96.59
2019-04-06T03:51:23.603Z,96.59
2019-04-06T03:52:23.683Z,96.49
2019-04-06T03:53:23.592Z,96.49
2019-04-06T03:54:23.550Z,96.39
2019-04-06T03:55:23.567Z,96.49
2019-04-06T03:56:23.537Z,96.28
2019-04-06T03:57:23.521Z,96.39
2019-04-06T03:58:23.734Z,96.28
2019-04-06T03:59:23.527Z,96.18
2019-04-06T04:00:23.670Z,96.08
2019-04-06T04:01:23.501Z,95.98
2019-04-06T04:02:23.478Z,95.87
2019-04-06T04:03:23.617Z,95.98
2019-04-06T04:04:23.465Z,95.87
2019-04-06T04:05:23.430Z,95.87
2019-04-06T04:06:23.455Z,95.87
2019-04-06T04:07:23.518Z,95.87
2019-04-06T04:08:23.429Z,95.98
2019-04-06T04:09:23.399Z,96.08
2019-04-06T04:10:23.385Z,96.18
2019-04-06T04:11:23.389Z,96.18
2019-04-06T04:12:23.628Z,96.18
2019-04-06T04:13:23.383Z,96.28
2019-04-06T04:14:23.358Z,96.28
2019-04-06T04:15:23.523Z,96.39
2019-04-06T04:16:23.310Z,96.28
2019-04-06T04:17:23.311Z,96.39
2019-04-06T04:18:23.319Z,96.28
2019-04-06T04:19:23.289Z,96.18
2019-04-06T04:20:23.270Z,96.08
2019-04-06T04:21:23.270Z,95.67
2019-04-06T04:22:23.254Z,95.25
2019-04-06T04:23:23.273Z,94.95
2019-04-06T04:24:23.248Z,94.84
2019-04-06T04:25:23.222Z,94.74
2019-04-06T04:26:23.376Z,94.90
2019-04-06T04:27:29.894Z,94.90
2019-04-06T04:28:24.223Z,94.80
2019-04-06T04:29:23.178Z,94.59
2019-04-06T04:30:32.519Z,94.59
2019-04-06T04:31:24.160Z,94.70
2019-04-06T04:32:23.157Z,94.80
2019-04-06T04:33:23.169Z,94.84
2019-04-06T04:34:23.168Z,94.95
2019-04-06T04:35:23.118Z,94.80
2019-04-06T04:36:23.088Z,94.80
2019-04-06T04:37:23.103Z,94.90
2019-04-06T04:38:23.131Z,94.80
2019-04-06T04:39:23.082Z,94.70
2019-04-06T04:40:23.061Z,94.80
2019-04-06T04:41:23.116Z,94.80
2019-04-06T04:42:23.039Z,94.80
2019-04-06T04:43:23.064Z,94.70
2019-04-06T04:44:23.025Z,94.70
2019-04-06T04:45:22.994Z,94.70
2019-04-06T04:46:23.014Z,94.59
2019-04-06T04:47:22.979Z,94.70
2019-04-06T04:48:23.238Z,94.70
2019-04-06T04:49:22.991Z,94.59
2019-04-06T04:50:22.976Z,94.59
2019-04-06T04:51:22.938Z,94.74
2019-04-06T04:52:22.934Z,94.70
2019-04-06T04:53:22.944Z,94.80
2019-04-06T04:54:22.918Z,94.80
2019-04-06T04:55:22.916Z,94.59
2019-04-06T04:56:22.997Z,94.59
2019-04-06T04:57:22.876Z,94.59
2019-04-06T04:58:22.886Z,94.38
2019-04-06T04:59:23.034Z,94.38
2019-04-06T05:00:22.857Z,94.38
2019-04-06T05:01:22.842Z,94.38
2019-04-06T05:02:22.836Z,94.38
2019-04-06T05:03:22.827Z,94.28
2019-04-06T05:04:22.786Z,94.38
2019-04-06T05:05:22.797Z,94.28
2019-04-06T05:06:22.771Z,94.28
2019-04-06T05:07:22.779Z,94.18
2019-04-06T05:08:22.792Z,94.18
2019-04-06T05:09:22.746Z,94.08
2019-04-06T05:10:22.761Z,93.98
2019-04-06T05:11:22.750Z,93.87
2019-04-06T05:12:22.728Z,93.87
2019-04-06T05:13:22.737Z,93.77
2019-04-06T05:14:22.687Z,93.77
2019-04-06T05:15:22.682Z,93.77
2019-04-06T05:16:22.680Z,93.77
2019-04-06T05:17:22.691Z,93.56
2019-04-06T05:18:22.682Z,93.46
2019-04-06T05:19:22.652Z,93.46
2019-04-06T05:20:23.961Z,93.31
2019-04-06T05:21:22.628Z,93.11
2019-04-06T05:22:22.618Z,92.63
2019-04-06T05:23:22.611Z,92.59
2019-04-06T05:24:22.627Z,92.63
2019-04-06T05:25:22.577Z,92.69
2019-04-06T05:26:22.581Z,92.59
2019-04-06T05:27:22.591Z,92.59
2019-04-06T05:28:22.563Z,92.69
2019-04-06T05:29:22.557Z,92.69
2019-04-06T05:30:22.541Z,92.69
2019-04-06T05:31:22.524Z,92.90
2019-04-06T05:32:22.643Z,92.90
2019-04-06T05:33:22.581Z,92.69
2019-04-06T05:34:22.514Z,92.69
2019-04-06T05:35:22.483Z,92.49
2019-04-06T05:36:22.451Z,92.49
2019-04-06T05:37:22.686Z,92.49
2019-04-06T05:38:22.438Z,92.34
2019-04-06T05:39:22.456Z,91.93
2019-04-06T05:40:22.416Z,91.72
2019-04-06T05:41:22.423Z,91.52
2019-04-06T05:42:22.402Z,91.52
2019-04-06T05:43:22.381Z,91.62
2019-04-06T05:44:22.398Z,91.52
2019-04-06T05:45:22.374Z,91.62
2019-04-06T05:46:22.353Z,91.83
2019-04-06T05:47:22.378Z,91.72
2019-04-06T05:48:22.364Z,91.52
2019-04-06T05:49:22.328Z,91.31
2019-04-06T05:50:22.334Z,91.00
2019-04-06T05:51:22.343Z,90.90
2019-04-06T05:52:22.290Z,90.90
2019-04-06T05:53:22.305Z,91.11
2019-04-06T05:54:22.285Z,91.06
2019-04-06T05:55:24.374Z,90.45
2019-04-06T05:56:22.249Z,89.94
2019-04-06T05:57:22.256Z,89.62
2019-04-06T05:58:22.230Z,89.69
2019-04-06T05:59:22.237Z,89.38
2019-04-06T06:00:22.207Z,89.28
2019-04-06T06:01:22.218Z,88.86
2019-04-06T06:02:22.347Z,88.45
2019-04-06T06:03:22.176Z,88.14
2019-04-06T06:04:22.208Z,88.41
2019-04-06T06:05:22.144Z,87.49
2019-04-06T06:06:22.159Z,87.38
2019-04-06T06:07:22.118Z,87.69
2019-04-06T06:08:22.164Z,87.55
2019-04-06T06:09:22.138Z,86.83
2019-04-06T06:10:22.118Z,86.32
2019-04-06T06:11:22.097Z,86.62
2019-04-06T06:12:22.225Z,86.42
2019-04-06T06:13:22.055Z,86.00
2019-04-06T06:14:22.099Z,85.90
2019-04-06T06:15:22.042Z,85.49
2019-04-06T06:16:22.036Z,85.66
2019-04-06T06:17:22.011Z,85.04
2019-04-06T06:18:27.105Z,85.18
2019-04-06T06:19:23.031Z,84.94
2019-04-06T06:20:22.006Z,84.74
2019-04-06T06:21:22.138Z,84.22
2019-04-06T06:22:21.962Z,84.94
2019-04-06T06:23:21.946Z,84.53
2019-04-06T06:24:22.106Z,84.42
2019-04-06T06:25:21.960Z,84.53
2019-04-06T06:26:21.967Z,84.84
2019-04-06T06:27:22.977Z,84.74
2019-04-06T06:28:21.914Z,84.42
2019-04-06T06:29:21.907Z,84.22
2019-04-06T06:30:21.877Z,84.63
2019-04-06T06:31:21.907Z,84.28
2019-04-06T06:32:21.862Z,83.67
2019-04-06T06:33:21.855Z,83.67
2019-04-06T06:34:21.863Z,83.77
2019-04-06T06:35:21.955Z,83.81
2019-04-06T06:36:22.045Z,84.12
2019-04-06T06:37:21.823Z,83.98
2019-04-06T06:38:21.781Z,83.98
2019-04-06T06:39:21.826Z,83.01
2019-04-06T06:40:21.756Z,82.81
2019-04-06T06:41:21.957Z,82.46
2019-04-06T06:42:21.769Z,81.68
2019-04-06T06:43:21.757Z,81.74
2019-04-06T06:44:21.746Z,81.54
2019-04-06T06:45:21.721Z,80.17
2019-04-06T06:46:21.722Z,80.07
2019-04-06T06:47:21.720Z,80.64
2019-04-06T06:48:21.673Z,78.17
2019-04-06T06:49:21.716Z,76.03
2019-04-06T06:50:21.666Z,74.01
2019-04-06T06:51:21.660Z,71.19
2019-04-06T06:52:21.640Z,70.85
2019-04-06T06:53:21.634Z,69.73
2019-04-06T06:54:21.684Z,69.66
2019-04-06T06:55:21.608Z,69.93
2019-04-06T06:56:21.591Z,68.88
2019-04-06T06:57:21.757Z,68.10
2019-04-06T06:58:25.675Z,67.05
2019-04-06T06:59:21.578Z,66.44
2019-04-06T07:00:21.538Z,65.30
2019-04-06T07:01:21.543Z,64.52
2019-04-06T07:02:21.540Z,63.17
2019-04-06T07:03:21.536Z,62.63
2019-04-06T07:04:21.543Z,61.05
2019-04-06T07:05:21.497Z,60.39
2019-04-06T07:06:21.525Z,59.27
2019-04-06T07:07:21.471Z,59.00
2019-04-06T07:08:21.595Z,59.74
2019-04-06T07:09:21.683Z,60.27
2019-04-06T07:10:21.444Z,61.59
2019-04-06T07:11:21.527Z,60.07
2019-04-06T07:12:21.431Z,60.58
2019-04-06T07:13:21.427Z,60.14
2019-04-06T07:14:21.428Z,58.97
2019-04-06T07:15:21.403Z,58.61
2019-04-06T07:16:21.367Z,57.87
2019-04-06T07:17:21.364Z,55.49
2019-04-06T07:18:21.371Z,53.85
2019-04-06T07:19:21.377Z,53.52
2019-04-06T07:20:21.479Z,53.55
2019-04-06T07:21:21.322Z,53.12
2019-04-06T07:22:21.314Z,52.87
2019-04-06T07:23:21.314Z,52.79
2019-04-06T07:24:21.520Z,51.91
2019-04-06T07:25:21.313Z,52.31
2019-04-06T07:26:21.278Z,50.59
2019-04-06T07:27:21.268Z,49.21
2019-04-06T07:28:21.260Z,51.35
2019-04-06T07:29:21.275Z,53.93
2019-04-06T07:30:21.421Z,55.02
2019-04-06T07:31:21.256Z,53.72
2019-04-06T07:32:21.215Z,54.00
2019-04-06T07:33:21.196Z,56.67
2019-04-06T07:34:21.181Z,55.63
2019-04-06T07:35:21.217Z,51.90
2019-04-06T07:36:21.198Z,51.93
2019-04-06T07:37:21.154Z,53.91
2019-04-06T07:38:21.150Z,53.72
2019-04-06T07:39:21.199Z,53.19
2019-04-06T07:40:21.156Z,53.93
2019-04-06T07:41:21.109Z,54.11
2019-04-06T07:42:21.454Z,53.37
2019-04-06T07:43:21.099Z,53.52
2019-04-06T07:44:21.100Z,52.54
2019-04-06T07:45:21.114Z,50.35
2019-04-06T07:46:21.065Z,49.79
2019-04-06T07:47:21.068Z,47.86
2019-04-06T07:48:21.046Z,49.24
2019-04-06T07:49:21.247Z,46.96
2019-04-06T07:50:21.052Z,46.06
2019-04-06T07:51:21.010Z,46.50
2019-04-06T07:52:21.022Z,47.31
2019-04-06T07:53:21.029Z,45.29
2019-04-06T07:54:21.004Z,45.50
2019-04-06T07:55:21.026Z,45.23
2019-04-06T07:56:20.977Z,44.85
2019-04-06T07:57:21.090Z,44.43
2019-04-06T07:58:20.964Z,43.06
2019-04-06T07:59:20.924Z,44.51
2019-04-06T08:00:20.938Z,43.68
2019-04-06T08:01:20.936Z,45.21
2019-04-06T08:02:20.877Z,43.96
2019-04-06T08:03:20.944Z,41.83
2019-04-06T08:04:20.874Z,41.75
2019-04-06T08:05:20.925Z,41.97
2019-04-06T08:06:20.849Z,42.41
2019-04-06T08:07:20.831Z,44.20
2019-04-06T08:08:20.852Z,43.68
2019-04-06T08:09:21.001Z,42.58
2019-04-06T08:10:20.862Z,42.47
2019-04-06T08:11:20.838Z,43.18
2019-04-06T08:12:21.159Z,44.37
2019-04-06T08:13:20.789Z,44.75
2019-04-06T08:14:20.796Z,44.32
2019-04-06T08:15:20.827Z,44.75
2019-04-06T08:16:20.735Z,45.49
2019-04-06T08:17:20.740Z,42.13
2019-04-06T08:18:20.758Z,42.03
2019-04-06T08:19:20.737Z,41.69
2019-04-06T08:20:20.732Z,41.07
2019-04-06T08:21:20.716Z,41.09
2019-04-06T08:22:20.673Z,40.37
2019-04-06T08:23:20.897Z,40.11
2019-04-06T08:24:20.668Z,41.75
2019-04-06T08:25:20.683Z,41.31
2019-04-06T08:26:20.658Z,40.67
2019-04-06T08:27:20.647Z,41.57
2019-04-06T08:28:20.632Z,40.23
2019-04-06T08:29:20.608Z,41.97
2019-04-06T08:30:20.854Z,39.85
2019-04-06T08:31:20.597Z,41.03
2019-04-06T08:32:20.581Z,39.73
2019-04-06T08:33:20.561Z,41.38
2019-04-06T08:34:20.561Z,41.87
2019-04-06T08:35:26.173Z,41.96
2019-04-06T08:36:21.539Z,41.83
2019-04-06T08:37:20.519Z,42.76
2019-04-06T08:38:20.526Z,42.76
2019-04-06T08:39:20.530Z,42.38
2019-04-06T08:40:20.538Z,42.27
2019-04-06T08:41:20.495Z,40.89
2019-04-06T08:42:20.500Z,40.35
2019-04-06T08:43:20.475Z,40.69
2019-04-06T08:44:20.453Z,39.07
2019-04-06T08:45:20.483Z,39.31
2019-04-06T08:46:20.436Z,40.73
2019-04-06T08:47:20.487Z,40.31
2019-04-06T08:48:20.665Z,40.21
2019-04-06T08:49:20.423Z,40.35
2019-04-06T08:50:20.427Z,40.83
2019-04-06T08:51:20.388Z,41.77
2019-04-06T08:52:20.392Z,41.09
2019-04-06T08:53:20.365Z,40.48
2019-04-06T08:54:20.372Z,41.13
2019-04-06T08:55:20.374Z,42.24
2019-04-06T08:56:20.368Z,42.70
2019-04-06T08:57:22.459Z,45.06
2019-04-06T08:58:20.359Z,45.46
2019-04-06T08:59:20.342Z,47.85
2019-04-06T09:00:20.331Z,46.34
2019-04-06T09:01:20.327Z,45.79
2019-04-06T09:02:20.302Z,43.62
2019-04-06T09:03:20.281Z,44.17
2019-04-06T09:04:20.282Z,43.72
2019-04-06T09:05:20.289Z,43.44
2019-04-06T09:06:20.240Z,43.28
2019-04-06T09:07:20.292Z,42.74
2019-04-06T09:08:20.251Z,41.49
2019-04-06T09:09:20.193Z,40.93
2019-04-06T09:10:20.213Z,39.37
2019-04-06T09:11:20.209Z,37.55
2019-04-06T09:12:20.179Z,39.61
2019-04-06T09:13:20.170Z,40.06
2019-04-06T09:14:20.179Z,41.15
2019-04-06T09:15:20.159Z,39.03
2019-04-06T09:16:20.160Z,40.33
2019-04-06T09:17:20.158Z,40.99
2019-04-06T09:18:20.367Z,42.07
2019-04-06T09:19:20.099Z,39.29
2019-04-06T09:20:20.289Z,38.97
2019-04-06T09:21:22.121Z,40.01
2019-04-06T09:22:20.062Z,39.09
2019-04-06T09:23:20.121Z,41.79
2019-04-06T09:24:20.072Z,42.41
2019-04-06T09:25:20.058Z,41.49
2019-04-06T09:26:20.065Z,41.75
2019-04-06T09:27:20.015Z,39.75
2019-04-06T09:28:20.010Z,39.23
2019-04-06T09:29:23.605Z,40.06
2019-04-06T09:30:20.021Z,41.41
2019-04-06T09:31:20.005Z,40.67
2019-04-06T09:32:19.990Z,40.15
2019-04-06T09:33:19.998Z,39.95
2019-04-06T09:34:19.956Z,40.83
2019-04-06T09:35:20.232Z,40.84
2019-04-06T09:36:19.971Z,40.77
2019-04-06T09:37:19.944Z,44.35
2019-04-06T09:38:19.926Z,46.51
2019-04-06T09:39:19.922Z,45.46
2019-04-06T09:40:19.895Z,44.39
2019-04-06T09:41:19.943Z,43.65
2019-04-06T09:42:19.874Z,43.04
2019-04-06T09:43:19.932Z,43.85
2019-04-06T09:44:19.862Z,43.22
2019-04-06T09:45:19.828Z,42.96
2019-04-06T09:46:19.855Z,40.41
2019-04-06T09:47:19.827Z,40.67
2019-04-06T09:48:19.808Z,40.06
2019-04-06T09:49:19.802Z,40.39
2019-04-06T09:50:19.786Z,40.33
2019-04-06T09:51:19.801Z,41.03
2019-04-06T09:52:19.766Z,39.69
2019-04-06T09:53:19.789Z,40.20
2019-04-06T09:54:19.749Z,41.15
2019-04-06T09:55:19.738Z,38.17
2019-04-06T09:56:19.753Z,36.85
2019-04-06T09:57:19.712Z,36.41
2019-04-06T09:58:19.790Z,38.74
2019-04-06T09:59:19.842Z,38.32
2019-04-06T10:00:19.882Z,39.36
2019-04-06T10:01:19.708Z,41.75
2019-04-06T10:02:19.655Z,39.23
2019-04-06T10:03:19.956Z,39.74
2019-04-06T10:04:19.634Z,40.24
2019-04-06T10:05:19.672Z,41.59
2019-04-06T10:06:19.742Z,38.72
2019-04-06T10:07:19.619Z,37.76
2019-04-06T10:08:19.853Z,39.47
2019-04-06T10:09:19.603Z,37.42
2019-04-06T10:10:19.585Z,38.81
2019-04-06T10:11:19.543Z,36.70
2019-04-06T10:12:19.563Z,36.61
2019-04-06T10:13:19.713Z,38.92
2019-04-06T10:14:19.545Z,37.10
2019-04-06T10:15:19.537Z,38.25
2019-04-06T10:16:19.528Z,37.13
2019-04-06T10:17:19.511Z,35.76
2019-04-06T10:18:19.477Z,36.20
2019-04-06T10:19:19.499Z,37.37
2019-04-06T10:20:19.594Z,38.46
2019-04-06T10:21:19.516Z,38.42
2019-04-06T10:22:19.563Z,37.92
2019-04-06T10:23:19.444Z,37.05
2019-04-06T10:24:19.502Z,38.68
2019-04-06T10:25:19.670Z,39.28
2019-04-06T10:26:19.393Z,37.76
2019-04-06T10:27:19.687Z,38.09
2019-04-06T10:28:19.396Z,39.12
2019-04-06T10:29:19.420Z,39.08
2019-04-06T10:30:19.353Z,38.49
2019-04-06T10:31:19.412Z,38.92
2019-04-06T10:32:19.356Z,39.94
2019-04-06T10:33:19.349Z,40.33
2019-04-06T10:34:19.328Z,39.72
2019-04-06T10:35:19.349Z,39.20
2019-04-06T10:36:19.289Z,38.60
2019-04-06T10:37:19.265Z,39.42
2019-04-06T10:38:19.303Z,41.25
2019-04-06T10:39:19.520Z,39.62
2019-04-06T10:40:19.295Z,40.04
2019-04-06T10:41:19.255Z,40.22
2019-04-06T10:42:19.249Z,39.08
2019-04-06T10:43:19.220Z,39.26
2019-04-06T10:44:19.358Z,37.54
2019-04-06T10:45:19.299Z,38.72
2019-04-06T10:46:19.428Z,39.29
2019-04-06T10:47:19.184Z,37.50
2019-04-06T10:48:19.174Z,38.32
2019-04-06T10:49:19.184Z,37.76
2019-04-06T10:50:19.205Z,38.46
2019-04-06T10:51:19.142Z,39.48
2019-04-06T10:52:19.147Z,40.11
2019-04-06T10:53:19.149Z,39.84
2019-04-06T10:54:19.141Z,40.66
2019-04-06T10:55:19.206Z,39.52
2019-04-06T10:56:19.099Z,40.44
2019-04-06T10:57:19.064Z,39.22
2019-04-06T10:58:19.071Z,39.90
2019-04-06T10:59:19.310Z,38.36
2019-04-06T11:00:19.097Z,39.22
2019-04-06T11:01:19.066Z,41.13
2019-04-06T11:02:19.032Z,39.98
2019-04-06T11:03:19.087Z,38.84
2019-04-06T11:04:19.024Z,38.04
2019-04-06T11:05:19.026Z,38.54
2019-04-06T11:06:18.981Z,38.64
2019-04-06T11:07:18.968Z,39.25
2019-04-06T11:08:18.964Z,40.33
2019-04-06T11:09:18.997Z,40.83
2019-04-06T11:10:18.981Z,40.79
2019-04-06T11:11:20.609Z,41.01
2019-04-06T11:12:18.916Z,40.91
2019-04-06T11:13:18.922Z,39.94
2019-04-06T11:14:18.956Z,42.27
2019-04-06T11:15:18.908Z,40.91
2019-04-06T11:16:19.118Z,40.04
2019-04-06T11:17:18.857Z,41.77
2019-04-06T11:18:18.863Z,42.25
2019-04-06T11:19:19.159Z,39.72
2019-04-06T11:20:18.867Z,40.11
2019-04-06T11:21:19.193Z,40.73
2019-04-06T11:22:18.816Z,40.33
2019-04-06T11:23:18.820Z,41.03
2019-04-06T11:24:18.766Z,40.61
2019-04-06T11:25:18.823Z,39.88
2019-04-06T11:26:18.781Z,40.87
2019-04-06T11:27:18.759Z,40.70
2019-04-06T11:28:18.759Z,39.60
2019-04-06T11:29:18.830Z,40.02
2019-04-06T11:30:18.759Z,41.31
2019-04-06T11:31:18.722Z,41.03
2019-04-06T11:32:18.924Z,41.05
2019-04-06T11:33:18.688Z,41.95
2019-04-06T11:34:21.573Z,41.41
2019-04-06T11:35:18.696Z,39.48
2019-04-06T11:36:18.698Z,39.56
2019-04-06T11:37:18.650Z,40.57
2019-04-06T11:38:18.649Z,39.75
2019-04-06T11:39:18.682Z,40.67
2019-04-06T11:40:18.672Z,39.95
2019-04-06T11:41:18.904Z,39.48
2019-04-06T11:42:18.597Z,41.61
2019-04-06T11:43:18.609Z,41.33
2019-04-06T11:44:18.650Z,41.77
2019-04-06T11:45:18.594Z,41.87
2019-04-06T11:46:18.566Z,42.50
2019-04-06T11:47:18.591Z,42.94
2019-04-06T11:48:18.542Z,44.41
2019-04-06T11:49:18.534Z,43.14
2019-04-06T11:50:18.554Z,41.69
2019-04-06T11:51:18.651Z,43.12
2019-04-06T11:52:18.793Z,44.95
2019-04-06T11:53:18.480Z,44.98
2019-04-06T11:54:18.469Z,44.95
2019-04-06T11:55:18.480Z,44.13
2019-04-06T11:56:18.583Z,43.82
2019-04-06T11:57:18.460Z,43.95
2019-04-06T11:58:18.809Z,44.85
2019-04-06T11:59:18.453Z,45.56
2019-04-06T12:00:25.537Z,45.46
2019-04-06T12:01:19.483Z,45.06
2019-04-06T12:02:18.417Z,44.95
2019-04-06T12:03:18.387Z,45.30
2019-04-06T12:04:18.377Z,46.43
2019-04-06T12:05:18.354Z,46.73
2019-04-06T12:06:18.399Z,47.22
2019-04-06T12:07:18.369Z,48.00
2019-04-06T12:08:18.314Z,46.89
2019-04-06T12:09:18.312Z,46.21
2019-04-06T12:10:18.277Z,46.81
2019-04-06T12:11:18.388Z,47.54
2019-04-06T12:12:18.548Z,47.24
2019-04-06T12:13:18.276Z,48.27
2019-04-06T12:14:18.464Z,47.56
2019-04-06T12:15:18.452Z,47.77
2019-04-06T12:16:18.251Z,48.39
2019-04-06T12:17:18.240Z,48.82
2019-04-06T12:18:18.610Z,49.02
2019-04-06T12:19:18.406Z,49.84
2019-04-06T12:20:18.472Z,49.53
2019-04-06T12:21:18.471Z,50.06
2019-04-06T12:22:18.504Z,50.26
2019-04-06T12:23:18.147Z,49.96
2019-04-06T12:24:18.150Z,49.35
2019-04-06T12:25:18.120Z,49.88
2019-04-06T12:26:18.175Z,50.16
2019-04-06T12:27:18.461Z,49.33
2019-04-06T12:28:20.750Z,49.84
2019-04-06T12:29:18.990Z,49.73
2019-04-06T12:30:18.111Z,51.17
2019-04-06T12:31:18.115Z,50.44
2019-04-06T12:32:18.081Z,49.21
2019-04-06T12:33:18.085Z,49.35
2019-04-06T12:34:18.092Z,50.54
2019-04-06T12:35:18.052Z,49.22
2019-04-06T12:36:18.345Z,49.63
2019-04-06T12:37:18.045Z,48.82
2019-04-06T12:38:17.988Z,50.14
2019-04-06T12:39:18.030Z,51.05
2019-04-06T12:40:17.976Z,50.24
2019-04-06T12:41:18.294Z,50.54
2019-04-06T12:42:17.955Z,50.44
2019-04-06T12:43:17.959Z,50.54
2019-04-06T12:44:17.988Z,50.24
2019-04-06T12:45:18.249Z,51.03
2019-04-06T12:46:18.056Z,50.34
2019-04-06T12:47:17.956Z,49.84
2019-04-06T12:48:17.876Z,50.01
2019-04-06T12:49:17.908Z,49.22
2019-04-06T12:50:17.875Z,49.86
2019-04-06T12:51:17.871Z,50.49
2019-04-06T12:52:18.242Z,50.97